Time;durP1;ratioP1;P1;durP2;ratioP2;P2;SDS_P1;SDS_P2;PMS_P1;PMS_P2;Temp;Humidity;BMP_temperature;BMP_pressure;BME280_temperature;BME280_humidity;BME280_pressure;Samples;Min_cycle;Max_cycle;Signal;HPM_P1;HPM_P2
2021/04/04 00:04:21;;;;;;;9.13;5.73;;;;;;;1.22;79.94;99084.05;239053;1197;23109;-71
2021/04/04 00:09:24;;;;;;;9.37;5.37;;;;;;;1.29;80.17;99078.72;239328;1202;23118;-71
2021/04/04 00:14:26;;;;;;;7.97;4.50;;;;;;;1.31;79.48;99084.56;239272;1200;23108;-71
2021/04/04 00:19:29;;;;;;;9.65;5.85;;;;;;;1.31;79.97;99074.01;239119;1200;23093;-72
2021/04/04 00:24:33;;;;;;;9.47;5.57;;;;;;;1.34;79.36;99078.84;239226;1198;24383;-71
2021/04/04 00:29:35;;;;;;;9.97;5.90;;;;;;;1.37;79.95;99078.39;239403;1200;23111;-72
2021/04/04 00:34:37;;;;;;;10.05;5.70;;;;;;;1.38;79.97;99085.30;239349;1200;24558;-70
2021/04/04 00:39:40;;;;;;;10.77;6.00;;;;;;;1.37;79.72;99073.11;239278;1200;23112;-71
2021/04/04 00:44:42;;;;;;;9.47;5.83;;;;;;;1.37;79.72;99078.39;239267;1197;23109;-71
2021/04/04 00:49:45;;;;;;;10.80;5.67;;;;;;;1.39;79.88;99088.77;239308;1201;23109;-71
2021/04/04 00:54:47;;;;;;;9.50;5.33;;;;;;;1.41;79.41;99087.48;238984;1196;23109;-72
2021/04/04 00:59:50;;;;;;;8.35;5.25;;;;;;;1.38;80.18;99092.42;238859;1198;23112;-72
2021/04/04 01:04:54;;;;;;;11.10;6.10;;;;;;;1.34;79.82;99084.95;239496;1200;23279;-72
2021/04/04 01:09:59;;;;;;;10.50;6.10;;;;;;;1.35;80.06;99096.30;239155;1197;23431;-71
2021/04/04 01:15:09;;;;;;;8.80;5.90;;;;;;;1.38;80.05;99101.13;238679;1200;23112;-71
2021/04/04 01:20:47;;;;;;;10.00;6.20;;;;;;;1.38;79.48;99095.85;239098;1198;23105;-71
2021/04/04 01:26:08;;;;;;;10.43;6.10;;;;;;;1.39;79.97;99099.32;239152;1200;23122;-71
2021/04/04 01:31:14;;;;;;;10.50;5.20;;;;;;;1.43;80.13;99105.75;239309;1202;23126;-71
2021/04/04 01:36:18;;;;;;;9.40;5.50;;;;;;;1.44;80.21;99112.64;239425;1202;23134;-72
2021/04/04 01:41:38;;;;;;;10.50;6.50;;;;;;;1.41;79.86;99116.53;239346;1197;23101;-71
2021/04/04 01:46:44;;;;;;;10.23;6.20;;;;;;;1.41;79.95;99105.17;239222;1200;23116;-71
2021/04/04 01:51:48;;;;;;;12.10;7.00;;;;;;;1.42;79.76;99110.23;239405;1202;27176;-72
2021/04/04 01:56:53;;;;;;;13.23;7.23;;;;;;;1.45;80.08;99115.06;239310;1202;23113;-72
2021/04/04 02:01:56;;;;;;;9.80;6.25;;;;;;;1.44;80.15;99110.83;238954;1200;25993;-71
2021/04/04 02:07:00;;;;;;;9.20;6.30;;;;;;;1.44;79.68;99113.47;239410;1199;23112;-71
2021/04/04 02:12:04;;;;;;;10.97;7.30;;;;;;;1.46;79.71;99121.17;239457;1197;23135;-72
2021/04/04 02:17:07;;;;;;;10.90;6.10;;;;;;;1.47;79.43;99113.03;238778;1197;23135;-71
2021/04/04 02:22:11;;;;;;;12.70;8.00;;;;;;;1.49;79.72;99118.08;239116;1200;23121;-71
2021/04/04 02:27:13;;;;;;;11.75;7.70;;;;;;;1.48;80.16;99117.29;239172;1200;23112;-72
2021/04/04 02:32:19;;;;;;;12.07;7.37;;;;;;;1.49;79.29;99120.72;239188;1202;23108;-71
2021/04/04 02:37:23;;;;;;;10.57;6.60;;;;;;;1.50;79.38;99125.78;239281;1197;26159;-72
2021/04/04 02:42:28;;;;;;;10.80;6.60;;;;;;;1.48;80.22;99127.84;238485;1200;23104;-71
2021/04/04 02:47:40;;;;;;;12.73;6.83;;;;;;;1.46;79.49;99129.09;239437;1196;23134;-72
2021/04/04 02:52:45;;;;;;;14.27;7.87;;;;;;;1.45;80.02;99125.63;238882;1200;23123;-72
2021/04/04 02:57:52;;;;;;;12.03;7.20;;;;;;;1.48;79.54;99130.48;239383;1200;25961;-72
2021/04/04 03:02:57;;;;;;;11.97;7.27;;;;;;;1.47;79.76;99139.43;239364;1197;23109;-71
2021/04/04 03:08:07;;;;;;;11.05;6.45;;;;;;;1.45;79.71;99135.39;239463;1196;23105;-71
2021/04/04 03:13:10;;;;;;;14.50;6.80;;;;;;;1.39;79.31;99129.16;239258;1202;23138;-71
2021/04/04 03:18:13;;;;;;;11.47;6.43;;;;;;;1.35;79.50;99130.62;239382;1200;23105;-71
2021/04/04 03:23:19;;;;;;;13.40;7.10;;;;;;;1.27;78.78;99138.81;239262;1202;27313;-71
2021/04/04 03:28:22;;;;;;;12.45;6.80;;;;;;;1.18;79.57;99135.66;239439;1198;23121;-71
2021/04/04 03:33:25;;;;;;;12.93;7.03;;;;;;;1.08;79.72;99133.52;239149;1202;23109;-71
2021/04/04 03:38:30;;;;;;;12.70;7.63;;;;;;;0.98;79.47;99133.19;239560;1200;23112;-72
2021/04/04 03:43:34;;;;;;;10.80;7.50;;;;;;;0.86;79.64;99138.38;239044;1202;23112;-72
2021/04/04 03:48:39;;;;;;;10.90;6.97;;;;;;;0.76;79.42;99138.86;239245;1198;23112;-71
2021/04/04 03:53:46;;;;;;;13.67;8.10;;;;;;;0.63;79.70;99139.77;239382;1200;23106;-71
2021/04/04 03:58:50;;;;;;;13.07;7.53;;;;;;;0.50;79.69;99139.84;239320;1200;23273;-71
2021/04/04 04:03:55;;;;;;;13.07;7.93;;;;;;;0.41;79.96;99144.58;239502;1200;23163;-71
2021/04/04 04:09:06;;;;;;;15.90;8.20;;;;;;;0.30;79.60;99148.69;239459;1203;23116;-71
2021/04/04 04:14:15;;;;;;;14.25;7.95;;;;;;;0.19;80.07;99151.20;239424;1198;23198;-71
2021/04/04 04:19:18;;;;;;;11.13;6.63;;;;;;;0.08;79.90;99142.92;239089;1200;23118;-71
2021/04/04 04:24:21;;;;;;;15.10;8.45;;;;;;;0.04;80.11;99156.73;239301;1199;23262;-71
2021/04/04 04:29:26;;;;;;;16.35;9.45;;;;;;;0.01;80.56;99154.53;239273;1202;26295;-71
2021/04/04 04:34:30;;;;;;;14.00;8.10;;;;;;;0.01;80.58;99151.89;239560;1198;23186;-71
2021/04/04 04:39:33;;;;;;;14.90;9.37;;;;;;;0.00;80.66;99159.00;239041;1200;23237;-72
2021/04/04 04:44:40;;;;;;;13.47;8.63;;;;;;;-0.02;80.51;99159.19;239328;1202;26073;-73
2021/04/04 04:49:44;;;;;;;16.60;9.00;;;;;;;0.02;80.14;99158.79;239318;1202;23099;-71
2021/04/04 04:54:47;;;;;;;15.00;8.93;;;;;;;0.04;80.50;99167.27;238946;1200;23136;-71
2021/04/04 04:59:50;;;;;;;17.00;10.13;;;;;;;0.05;80.52;99167.06;239119;1200;23138;-71
2021/04/04 05:04:53;;;;;;;17.05;9.60;;;;;;;0.07;80.80;99166.84;239066;1200;23149;-71
2021/04/04 05:09:57;;;;;;;16.73;9.43;;;;;;;0.13;80.95;99163.39;239382;1200;23559;-71
2021/04/04 05:15:06;;;;;;;13.77;7.83;;;;;;;0.20;80.50;99171.23;239567;1196;23135;-72
2021/04/04 05:20:09;;;;;;;15.60;8.20;;;;;;;0.31;81.07;99181.14;239379;1200;23078;-72
2021/04/04 05:25:14;;;;;;;15.47;8.83;;;;;;;0.37;80.40;99176.85;238882;1200;23112;-70
2021/04/04 05:30:17;;;;;;;14.80;9.20;;;;;;;0.47;80.82;99179.82;239025;1200;23126;-70
2021/04/04 05:35:23;;;;;;;12.70;7.55;;;;;;;0.55;80.18;99181.41;239238;1202;27486;-71
2021/04/04 05:40:27;;;;;;;15.35;8.35;;;;;;;0.60;80.22;99184.20;239232;1199;23097;-72
2021/04/04 05:45:53;;;;;;;20.83;9.03;;;;;;;0.63;80.09;99179.32;239419;1202;26214;-72
2021/04/04 05:51:15;;;;;;;14.10;7.80;;;;;;;0.73;80.40;99178.85;239268;1202;23201;-72
2021/04/04 05:56:28;;;;;;;16.40;8.15;;;;;;;0.79;80.32;99183.26;238618;1200;23109;-72
2021/04/04 06:01:35;;;;;;;12.20;6.95;;;;;;;0.88;80.29;99191.70;239212;1200;23104;-70
2021/04/04 06:06:56;;;;;;;11.55;7.55;;;;;;;0.97;80.00;99194.91;239323;1202;23132;-72
2021/04/04 06:12:27;;;;;;;10.17;6.20;;;;;;;1.11;80.16;99199.05;239136;1202;23632;-71
2021/04/04 06:17:56;;;;;;;10.73;6.50;;;;;;;1.28;80.04;99201.94;239262;1198;23118;-71
2021/04/04 06:23:16;;;;;;;13.27;7.07;;;;;;;1.40;79.44;99198.59;239011;1197;23226;-71
2021/04/04 06:28:30;;;;;;;12.90;5.97;;;;;;;1.59;79.59;99202.07;239399;1200;23280;-71
2021/04/04 06:33:40;;;;;;;12.17;5.60;;;;;;;1.64;78.37;99203.03;239295;1200;25993;-71
2021/04/04 06:39:22;;;;;;;13.18;6.10;;;;;;;1.83;78.54;99193.28;239522;1197;23102;-71
2021/04/04 06:45:02;;;;;;;9.20;5.25;;;;;;;2.07;78.03;99203.16;239134;1200;23322;-70
2021/04/04 06:50:23;;;;;;;9.53;4.90;;;;;;;2.22;77.96;99196.48;239432;1203;23121;-71
2021/04/04 06:56:00;;;;;;;8.65;4.75;;;;;;;2.45;77.90;99202.89;239121;1199;23103;-72
2021/04/04 07:01:05;;;;;;;6.53;4.30;;;;;;;2.75;76.76;99202.05;239630;1199;23134;-70
2021/04/04 07:06:40;;;;;;;9.85;5.55;;;;;;;2.81;75.74;99202.98;239464;1199;23108;-70
2021/04/04 07:12:04;;;;;;;7.90;5.07;;;;;;;2.95;76.02;99195.66;239321;1196;23109;-71
2021/04/04 07:17:33;;;;;;;11.10;6.30;;;;;;;3.31;75.98;99207.89;239415;1200;23136;-70
2021/04/04 07:23:09;;;;;;;8.00;4.80;;;;;;;3.58;75.22;99218.02;239324;1196;23268;-70
2021/04/04 07:28:43;;;;;;;6.50;3.95;;;;;;;3.59;74.28;99217.78;239556;1202;23101;-71
2021/04/04 07:34:09;;;;;;;8.23;4.33;;;;;;;3.65;74.10;99223.20;239167;1202;23109;-71
2021/04/04 07:39:30;;;;;;;7.53;4.60;;;;;;;3.87;74.07;99229.52;239630;1196;23108;-70
2021/04/04 07:44:42;;;;;;;7.40;5.03;;;;;;;3.98;73.34;99227.09;239121;1197;23105;-71
2021/04/04 07:49:53;;;;;;;5.75;3.95;;;;;;;3.99;73.30;99233.98;238661;1200;23244;-71
2021/04/04 07:55:04;;;;;;;8.53;4.63;;;;;;;3.94;72.43;99226.74;238642;1200;23121;-70
2021/04/04 08:00:10;;;;;;;5.20;3.20;;;;;;;3.95;71.79;99228.36;238779;1200;23107;-70
2021/04/04 08:05:15;;;;;;;6.23;3.90;;;;;;;4.09;71.66;99228.91;239025;1196;26275;-70
2021/04/04 08:11:06;;;;;;;6.40;3.87;;;;;;;4.17;71.19;99228.55;239317;1202;26265;-70
2021/04/04 08:16:28;;;;;;;7.43;3.37;;;;;;;4.38;70.98;99234.23;239282;1200;23121;-69
2021/04/04 08:21:40;;;;;;;6.25;3.50;;;;;;;4.57;70.47;99233.00;238387;1199;23090;-70
2021/04/04 08:26:53;;;;;;;5.30;2.63;;;;;;;4.65;69.28;99231.03;238510;1200;23074;-70
2021/04/04 08:32:05;;;;;;;5.60;2.75;;;;;;;4.76;69.45;99227.52;239029;1199;23319;-71
2021/04/04 08:37:18;;;;;;;5.10;2.67;;;;;;;4.93;69.24;99227.53;239133;1199;23135;-70
2021/04/04 08:42:22;;;;;;;4.80;2.25;;;;;;;5.10;68.31;99219.58;239251;1196;23090;-70
2021/04/04 08:47:31;;;;;;;4.80;2.70;;;;;;;5.16;67.30;99223.91;239137;1202;23114;-70
2021/04/04 08:53:13;;;;;;;4.13;2.13;;;;;;;5.35;66.39;99229.80;239110;1202;23240;-71
2021/04/04 08:58:17;;;;;;;3.00;2.30;;;;;;;5.66;65.50;99214.30;239320;1200;23517;-70
2021/04/04 09:03:22;;;;;;;3.60;2.30;;;;;;;5.93;64.41;99216.23;239463;1199;23138;-70
2021/04/04 09:08:25;;;;;;;4.45;2.10;;;;;;;6.23;64.21;99212.38;239584;1200;23117;-71
2021/04/04 09:13:34;;;;;;;3.67;1.90;;;;;;;6.57;62.02;99220.19;239112;1202;23105;-70
2021/04/04 09:19:04;;;;;;;3.30;1.68;;;;;;;6.53;61.37;99208.44;238853;1197;23125;-71
2021/04/04 09:24:10;;;;;;;1.75;1.50;;;;;;;6.47;59.17;99204.92;238762;1202;23277;-70
2021/04/04 09:29:14;;;;;;;3.17;1.70;;;;;;;6.36;59.23;99206.66;238937;1197;24585;-72
2021/04/04 09:34:18;;;;;;;3.07;1.57;;;;;;;6.26;59.15;99195.92;238907;1202;23109;-70
2021/04/04 09:39:25;;;;;;;2.70;1.53;;;;;;;6.28;58.73;99194.63;238945;1197;23132;-71
2021/04/04 09:44:33;;;;;;;2.25;1.50;;;;;;;6.52;58.83;99183.69;238671;1200;23122;-70
2021/04/04 09:49:45;;;;;;;5.57;2.13;;;;;;;6.91;58.09;99183.51;239503;1199;23116;-70
2021/04/04 09:55:04;;;;;;;2.43;1.77;;;;;;;7.09;57.15;99189.48;239316;1199;23136;-70
2021/04/04 10:00:37;;;;;;;2.05;1.60;;;;;;;7.42;57.06;99191.06;239123;1200;23250;-70
2021/04/04 10:05:43;;;;;;;2.30;1.50;;;;;;;7.67;54.80;99187.73;238631;1200;23163;-69
2021/04/04 10:10:51;;;;;;;2.43;1.90;;;;;;;7.93;53.73;99206.52;238623;1202;23109;-70
2021/04/04 10:15:54;;;;;;;3.63;1.83;;;;;;;7.63;51.81;99191.19;238764;1202;23121;-70
2021/04/04 10:20:58;;;;;;;1.95;1.70;;;;;;;7.05;51.72;99193.72;238509;1200;27043;-71
2021/04/04 10:26:09;;;;;;;4.00;2.20;;;;;;;6.57;53.27;99197.03;239118;1198;26265;-69
2021/04/04 10:31:14;;;;;;;2.30;2.00;;;;;;;6.21;53.99;99191.35;239133;1202;23135;-70
2021/04/04 10:36:18;;;;;;;4.03;2.07;;;;;;;6.02;54.61;99180.22;238539;1200;23096;-69
2021/04/04 10:41:28;;;;;;;4.73;1.90;;;;;;;6.02;54.70;99182.09;238497;1202;23237;-70
2021/04/04 10:46:33;;;;;;;3.50;1.85;;;;;;;6.13;54.88;99173.17;239378;1196;23105;-70
2021/04/04 10:51:37;;;;;;;3.83;2.30;;;;;;;6.34;55.04;99167.00;238893;1196;23125;-70
2021/04/04 10:56:41;;;;;;;3.20;2.13;;;;;;;6.56;53.84;99147.53;238963;1199;23105;-70
2021/04/04 11:01:43;;;;;;;3.87;2.27;;;;;;;6.75;54.26;99152.48;238805;1197;23111;-70
2021/04/04 11:06:47;;;;;;;3.25;2.20;;;;;;;6.93;53.90;99149.42;238579;1202;25958;-70
2021/04/04 11:11:55;;;;;;;3.55;1.95;;;;;;;7.10;53.09;99140.48;238679;1200;23118;-70
2021/04/04 11:17:00;;;;;;;5.13;1.90;;;;;;;7.35;51.96;99142.51;238839;1200;23240;-69
2021/04/04 11:22:05;;;;;;;3.83;2.33;;;;;;;7.47;52.13;99142.30;238531;1202;23131;-70
2021/04/04 11:27:48;;;;;;;3.00;2.00;;;;;;;7.50;50.98;99139.13;238660;1201;23105;-70
2021/04/04 11:33:18;;;;;;;3.55;2.45;;;;;;;7.52;52.06;99129.79;238966;1202;23133;-69
2021/04/04 11:38:21;;;;;;;4.93;2.70;;;;;;;7.58;51.32;99130.62;239508;1197;23241;-70
2021/04/04 11:43:28;;;;;;;4.27;3.27;;;;;;;7.56;50.45;99132.75;239144;1202;23125;-70
2021/04/04 11:48:39;;;;;;;3.73;2.77;;;;;;;7.60;50.55;99127.72;238816;1202;23125;-70
2021/04/04 11:53:45;;;;;;;4.50;2.30;;;;;;;7.65;50.25;99117.88;238989;1202;25980;-70
2021/04/04 11:58:48;;;;;;;4.85;2.70;;;;;;;7.65;50.05;99117.05;238705;1197;23118;-70
2021/04/04 12:03:51;;;;;;;2.87;2.13;;;;;;;7.81;50.22;99113.39;238988;1197;23132;-70
2021/04/04 12:08:54;;;;;;;3.43;2.30;;;;;;;8.07;51.19;99112.66;239330;1200;23131;-70
2021/04/04 12:14:00;;;;;;;4.07;2.13;;;;;;;8.20;49.58;99104.95;239030;1200;23163;-71
2021/04/04 12:19:03;;;;;;;3.75;2.20;;;;;;;8.37;49.21;99094.03;238703;1197;23132;-71
2021/04/04 12:24:06;;;;;;;4.07;2.70;;;;;;;8.46;49.41;99094.33;238762;1202;23242;-71
2021/04/04 12:29:09;;;;;;;3.35;2.10;;;;;;;8.50;49.13;99078.59;238718;1200;23109;-70
2021/04/04 12:34:12;;;;;;;4.17;2.70;;;;;;;8.37;47.58;99075.34;238449;1200;23241;-70
2021/04/04 12:39:14;;;;;;;4.33;2.37;;;;;;;8.27;47.59;99078.02;238963;1200;23111;-70
2021/04/04 12:44:37;;;;;;;3.83;2.53;;;;;;;8.24;47.82;99062.54;238652;1200;23137;-69
2021/04/04 12:49:51;;;;;;;3.93;2.30;;;;;;;8.27;47.97;99050.50;238742;1200;23133;-70
2021/04/04 12:54:54;;;;;;;3.40;2.37;;;;;;;8.23;47.81;99053.72;238646;1203;23109;-69
2021/04/04 12:59:57;;;;;;;2.77;2.10;;;;;;;8.19;47.20;99051.85;238684;1200;23154;-70
2021/04/04 13:04:59;;;;;;;3.20;2.50;;;;;;;8.16;47.74;99039.83;238393;1200;23112;-70
2021/04/04 13:10:03;;;;;;;4.13;2.40;;;;;;;8.12;47.32;99032.63;238602;1200;23135;-70
2021/04/04 13:15:20;;;;;;;3.77;2.90;;;;;;;8.19;47.30;99019.83;238596;1200;23128;-70
2021/04/04 13:20:24;;;;;;;5.43;3.10;;;;;;;8.38;48.24;99015.56;238811;1201;23105;-69
2021/04/04 13:25:27;;;;;;;4.40;2.70;;;;;;;8.46;47.39;99010.77;238899;1197;23134;-69
2021/04/04 13:30:29;;;;;;;3.60;2.30;;;;;;;8.61;47.03;99008.09;238686;1199;23096;-70
2021/04/04 13:35:35;;;;;;;4.50;2.70;;;;;;;8.68;47.04;99002.47;238466;1199;23112;-70
2021/04/04 13:40:37;;;;;;;4.60;2.70;;;;;;;8.66;46.14;98996.59;238634;1201;26374;-70
2021/04/04 13:45:48;;;;;;;3.47;2.70;;;;;;;8.64;46.46;98994.19;238724;1203;23128;-70
2021/04/04 13:50:51;;;;;;;4.33;2.30;;;;;;;8.63;46.04;98986.45;238590;1202;23105;-69
2021/04/04 13:56:09;;;;;;;4.00;2.90;;;;;;;8.35;44.61;98984.06;238929;1197;23384;-70
2021/04/04 14:01:26;;;;;;;4.07;2.60;;;;;;;8.05;45.14;98980.31;238627;1202;23133;-71
2021/04/04 14:06:53;;;;;;;3.75;2.70;;;;;;;7.92;46.01;98970.19;239035;1200;23109;-70
2021/04/04 14:11:56;;;;;;;5.20;3.00;;;;;;;7.76;46.08;98966.69;238596;1201;23117;-72
2021/04/04 14:17:01;;;;;;;3.87;2.73;;;;;;;7.68;46.11;98959.20;238530;1202;23249;-70
2021/04/04 14:22:06;;;;;;;4.83;3.20;;;;;;;7.60;46.31;98951.75;238594;1202;23109;-70
2021/04/04 14:27:09;;;;;;;2.93;2.57;;;;;;;7.63;46.39;98940.55;238498;1200;23112;-70
2021/04/04 14:32:14;;;;;;;4.30;2.77;;;;;;;7.68;46.38;98937.88;238800;1200;23109;-71
2021/04/04 14:37:16;;;;;;;3.80;3.10;;;;;;;7.76;46.19;98932.02;238723;1197;23134;-69
2021/04/04 14:42:19;;;;;;;4.50;3.03;;;;;;;7.79;46.43;98928.02;238601;1201;23250;-70
2021/04/04 14:47:22;;;;;;;5.95;3.25;;;;;;;7.99;46.16;98922.70;238415;1199;23151;-71
2021/04/04 14:52:25;;;;;;;5.10;3.40;;;;;;;8.01;46.70;98919.77;239054;1196;23117;-69
2021/04/04 14:57:30;;;;;;;4.70;3.30;;;;;;;7.82;46.12;98916.81;238564;1200;23105;-70
2021/04/04 15:02:32;;;;;;;4.57;2.90;;;;;;;7.79;46.16;98896.02;238665;1197;23138;-71
2021/04/04 15:07:36;;;;;;;4.73;2.73;;;;;;;7.93;46.20;98898.95;238765;1200;23118;-70
2021/04/04 15:12:40;;;;;;;3.43;2.70;;;;;;;8.17;45.50;98897.34;238643;1200;23236;-69
2021/04/04 15:17:42;;;;;;;4.30;2.55;;;;;;;8.29;44.80;98883.70;238431;1196;23109;-69
2021/04/04 15:22:46;;;;;;;4.70;2.70;;;;;;;8.30;45.30;98887.19;238786;1196;23109;-70
2021/04/04 15:27:49;;;;;;;4.73;2.80;;;;;;;8.21;44.30;98866.38;238774;1196;23111;-69
2021/04/04 15:32:52;;;;;;;5.00;2.70;;;;;;;8.31;45.39;98872.75;238832;1200;26258;-70
2021/04/04 15:37:55;;;;;;;3.70;2.83;;;;;;;8.34;44.36;98858.88;238639;1196;23125;-69
2021/04/04 15:42:58;;;;;;;3.50;3.00;;;;;;;8.16;44.97;98855.70;238735;1200;23135;-70
2021/04/04 15:48:06;;;;;;;4.80;3.00;;;;;;;7.94;44.60;98845.33;238701;1200;23113;-69
2021/04/04 15:53:11;;;;;;;6.40;3.40;;;;;;;7.76;44.88;98836.02;238411;1200;23133;-70
2021/04/04 15:58:15;;;;;;;6.10;4.00;;;;;;;7.46;43.33;98837.63;238826;1203;25962;-69
2021/04/04 16:03:18;;;;;;;3.93;3.33;;;;;;;7.11;45.20;98835.73;238428;1201;23175;-70
2021/04/04 16:08:22;;;;;;;5.17;3.50;;;;;;;6.94;46.35;98828.77;238726;1200;23112;-71
2021/04/04 16:13:27;;;;;;;4.80;3.77;;;;;;;6.73;46.02;98827.09;239331;1200;23125;-70
2021/04/04 16:18:30;;;;;;;5.13;3.57;;;;;;;6.46;46.51;98820.90;239277;1196;23120;-69
2021/04/04 16:23:34;;;;;;;6.85;3.45;;;;;;;6.29;47.24;98813.08;238557;1200;23123;-71
2021/04/04 16:28:39;;;;;;;5.27;3.53;;;;;;;6.16;47.06;98811.69;239219;1202;26634;-70
2021/04/04 16:33:42;;;;;;;4.57;3.30;;;;;;;6.07;47.51;98812.44;238981;1200;23292;-70
2021/04/04 16:38:45;;;;;;;6.53;3.80;;;;;;;6.01;48.20;98798.31;239283;1199;23108;-69
2021/04/04 16:43:49;;;;;;;7.30;4.73;;;;;;;5.94;47.73;98787.87;238447;1198;23121;-69
2021/04/04 16:48:53;;;;;;;6.67;4.40;;;;;;;5.81;48.06;98783.02;239012;1199;23119;-68
2021/04/04 16:53:56;;;;;;;6.53;4.50;;;;;;;5.59;48.05;98777.81;238509;1200;23110;-68
2021/04/04 16:59:01;;;;;;;7.23;5.07;;;;;;;5.32;48.43;98776.03;238507;1196;23308;-69
2021/04/04 17:04:04;;;;;;;8.57;5.50;;;;;;;5.05;49.21;98771.55;238539;1199;23118;-70
2021/04/04 17:09:07;;;;;;;10.83;5.33;;;;;;;4.82;49.46;98769.20;238802;1199;23251;-69
2021/04/04 17:14:10;;;;;;;10.07;4.70;;;;;;;4.62;49.87;98770.59;238770;1197;23125;-70
2021/04/04 17:19:12;;;;;;;6.73;4.37;;;;;;;4.45;50.64;98765.38;238832;1196;23132;-70
2021/04/04 17:24:16;;;;;;;9.97;6.23;;;;;;;4.28;50.64;98768.07;238779;1202;23118;-69
2021/04/04 17:29:20;;;;;;;7.80;5.00;;;;;;;4.09;51.00;98772.89;238764;1197;23261;-70
2021/04/04 17:34:24;;;;;;;10.65;6.70;;;;;;;3.94;51.69;98768.18;238692;1201;23074;-71
2021/04/04 17:39:27;;;;;;;14.65;7.85;;;;;;;3.79;51.75;98758.16;238567;1200;23109;-70
2021/04/04 17:44:30;;;;;;;9.63;6.23;;;;;;;3.68;52.25;98764.37;238807;1196;23133;-69
2021/04/04 17:49:34;;;;;;;16.93;9.03;;;;;;;3.55;52.36;98758.39;238826;1200;23135;-70
2021/04/04 17:54:39;;;;;;;21.75;11.90;;;;;;;3.39;53.21;98756.55;238764;1202;23141;-70
2021/04/04 17:59:42;;;;;;;26.73;14.90;;;;;;;3.22;53.55;98752.05;238522;1200;23137;-72
2021/04/04 18:04:49;;;;;;;35.35;17.15;;;;;;;3.07;53.94;98755.23;239282;1199;23112;-70
2021/04/04 18:15:21;;;;;;;34.67;17.67;;;;;;;2.82;54.94;98741.58;238469;1200;23106;-70
2021/04/04 18:20:24;;;;;;;62.30;27.40;;;;;;;2.71;55.29;98745.88;238889;1202;25282;-70
2021/04/04 18:25:27;;;;;;;61.10;26.30;;;;;;;2.59;55.64;98745.95;238565;1200;23112;-70
2021/04/04 18:30:32;;;;;;;37.75;18.20;;;;;;;2.49;55.65;98724.59;238459;1201;23696;-70
2021/04/04 18:35:37;;;;;;;37.70;17.77;;;;;;;2.40;55.56;98716.23;238696;1199;23135;-70
2021/04/04 18:40:41;;;;;;;37.53;17.83;;;;;;;2.32;56.02;98719.25;238757;1201;23109;-71
2021/04/04 18:45:47;;;;;;;29.53;15.10;;;;;;;2.24;56.57;98717.80;238697;1202;23194;-70
2021/04/04 18:50:50;;;;;;;30.40;15.10;;;;;;;2.15;56.80;98709.41;238510;1200;23196;-71
2021/04/04 18:55:53;;;;;;;33.25;15.00;;;;;;;2.09;56.56;98710.36;239090;1199;23121;-70
2021/04/04 19:00:56;;;;;;;38.37;18.13;;;;;;;2.04;57.20;98707.61;238731;1201;23105;-70
2021/04/04 19:05:59;;;;;;;46.60;23.25;;;;;;;1.97;56.82;98691.09;238717;1200;23133;-68
2021/04/04 19:11:05;;;;;;;56.23;27.00;;;;;;;1.90;57.07;98693.06;238455;1197;23128;-70
2021/04/04 19:16:08;;;;;;;62.10;26.70;;;;;;;1.85;57.07;98701.70;238628;1197;23105;-72
2021/04/04 19:21:10;;;;;;;57.57;25.77;;;;;;;1.77;57.65;98687.00;239292;1200;23103;-70
2021/04/04 19:26:14;;;;;;;61.80;26.27;;;;;;;1.71;57.17;98682.66;239405;1199;23629;-71
2021/04/04 19:31:17;;;;;;;72.97;31.83;;;;;;;1.67;57.96;98678.88;239151;1200;23112;-70
2021/04/04 19:36:20;;;;;;;64.55;28.70;;;;;;;1.61;57.75;98663.94;239429;1197;23112;-70
2021/04/04 19:41:23;;;;;;;64.40;27.85;;;;;;;1.57;57.88;98663.63;239153;1200;23134;-71
2021/04/04 19:46:25;;;;;;;66.37;30.80;;;;;;;1.54;58.91;98662.24;238702;1199;23109;-71
2021/04/04 19:51:33;;;;;;;81.10;34.67;;;;;;;1.51;58.91;98661.89;239228;1200;23272;-70
2021/04/04 19:56:37;;;;;;;77.13;32.53;;;;;;;1.46;59.25;98654.67;238364;1200;23114;-70
2021/04/04 20:01:40;;;;;;;67.80;31.60;;;;;;;1.40;59.34;98649.51;238565;1200;23112;-71
2021/04/04 20:06:43;;;;;;;77.10;31.00;;;;;;;1.33;59.05;98628.50;238889;1202;23256;-72
2021/04/04 20:11:46;;;;;;;73.90;32.25;;;;;;;1.28;59.66;98631.06;238801;1197;23117;-70
2021/04/04 20:16:48;;;;;;;71.90;30.50;;;;;;;1.23;60.13;98623.02;239426;1200;23101;-71
2021/04/04 20:21:51;;;;;;;81.23;33.57;;;;;;;1.17;60.23;98614.98;239385;1202;23241;-71
2021/04/04 20:26:54;;;;;;;77.10;31.70;;;;;;;1.13;59.77;98615.68;238393;1201;23160;-70
2021/04/04 20:31:58;;;;;;;76.20;31.73;;;;;;;1.10;60.62;98603.75;238758;1196;23196;-71
2021/04/04 20:37:01;;;;;;;82.70;33.80;;;;;;;1.07;59.96;98598.94;238478;1200;23092;-71
2021/04/04 20:42:04;;;;;;;76.17;30.23;;;;;;;1.03;61.06;98597.80;239135;1196;23135;-70
2021/04/04 20:47:07;;;;;;;70.90;27.55;;;;;;;0.99;60.84;98583.45;239235;1200;23112;-70
2021/04/04 20:52:09;;;;;;;72.60;28.03;;;;;;;0.95;60.80;98579.67;238664;1202;23160;-70
2021/04/04 20:57:13;;;;;;;73.10;30.07;;;;;;;0.90;60.35;98567.18;238486;1196;23109;-71
2021/04/04 21:02:16;;;;;;;94.30;34.37;;;;;;;0.89;60.69;98570.05;238694;1202;23202;-70
2021/04/04 21:07:18;;;;;;;83.23;33.73;;;;;;;0.86;61.32;98560.76;238924;1197;23257;-70
2021/04/04 21:12:21;;;;;;;80.97;32.97;;;;;;;0.84;61.18;98563.63;238406;1199;23115;-70
2021/04/04 21:17:24;;;;;;;82.85;30.95;;;;;;;0.81;61.32;98558.82;238478;1196;23344;-72
2021/04/04 21:22:29;;;;;;;67.77;28.53;;;;;;;0.80;61.95;98553.78;239122;1199;23096;-70
2021/04/04 21:27:33;;;;;;;70.73;30.07;;;;;;;0.77;61.74;98549.77;239414;1196;23127;-70
2021/04/04 21:32:36;;;;;;;68.00;27.73;;;;;;;0.75;61.76;98537.84;239142;1200;23138;-70
2021/04/04 21:37:38;;;;;;;60.40;25.37;;;;;;;0.73;62.35;98534.61;239040;1196;23114;-71
2021/04/04 21:42:42;;;;;;;66.27;25.47;;;;;;;0.68;62.50;98522.91;239465;1196;23254;-70
2021/04/04 21:47:46;;;;;;;60.80;23.50;;;;;;;0.65;62.19;98512.05;239174;1200;23109;-71
2021/04/04 21:52:51;;;;;;;57.67;23.27;;;;;;;0.62;62.37;98513.30;239268;1197;23133;-70
2021/04/04 21:57:55;;;;;;;61.30;23.80;;;;;;;0.60;62.25;98507.47;239207;1200;23997;-70
2021/04/04 22:02:57;;;;;;;52.57;21.30;;;;;;;0.59;62.83;98502.40;239219;1197;23109;-70
2021/04/04 22:08:01;;;;;;;50.87;21.67;;;;;;;0.58;63.21;98498.18;239455;1202;23118;-70
2021/04/04 22:13:06;;;;;;;52.33;21.33;;;;;;;0.57;63.69;98478.11;238723;1199;23105;-70
2021/04/04 22:18:13;;;;;;;45.70;20.17;;;;;;;0.56;63.63;98484.41;239385;1200;23122;-71
2021/04/04 22:23:17;;;;;;;42.93;16.83;;;;;;;0.54;64.61;98473.31;238476;1201;25016;-71
2021/04/04 22:28:20;;;;;;;39.10;16.80;;;;;;;0.54;64.76;98468.83;239114;1196;23106;-71
2021/04/04 22:33:24;;;;;;;34.25;15.00;;;;;;;0.54;64.63;98460.92;238761;1196;23109;-70
2021/04/04 22:38:27;;;;;;;33.00;13.80;;;;;;;0.53;64.99;98450.61;238715;1201;23232;-70
2021/04/04 22:43:30;;;;;;;35.10;15.33;;;;;;;0.49;65.00;98429.99;238582;1202;23129;-71
2021/04/04 22:48:33;;;;;;;29.60;13.10;;;;;;;0.51;65.41;98419.22;238429;1196;23125;-70
2021/04/04 22:53:38;;;;;;;29.10;13.90;;;;;;;0.48;64.97;98417.84;238606;1202;23177;-71
2021/04/04 22:58:41;;;;;;;29.83;13.80;;;;;;;0.46;65.34;98398.02;238663;1197;23125;-71
2021/04/04 23:03:46;;;;;;;26.85;12.55;;;;;;;0.44;65.08;98395.61;239492;1197;27307;-70
2021/04/04 23:08:49;;;;;;;28.10;12.40;;;;;;;0.43;65.39;98394.00;238827;1196;23109;-71
2021/04/04 23:13:52;;;;;;;29.20;12.70;;;;;;;0.43;65.62;98387.94;238496;1198;23135;-71
2021/04/04 23:18:55;;;;;;;28.70;11.83;;;;;;;0.39;65.97;98377.05;239236;1197;23135;-70
2021/04/04 23:23:58;;;;;;;28.00;12.50;;;;;;;0.39;65.90;98368.35;238673;1200;23119;-70
2021/04/04 23:29:01;;;;;;;24.55;11.70;;;;;;;0.37;66.00;98357.25;238416;1196;23125;-71
2021/04/04 23:34:03;;;;;;;27.80;12.00;;;;;;;0.34;65.84;98350.61;238572;1202;23153;-71
2021/04/04 23:39:06;;;;;;;23.33;11.00;;;;;;;0.32;66.69;98347.39;238661;1197;23198;-71
2021/04/04 23:44:08;;;;;;;22.90;11.20;;;;;;;0.31;66.13;98336.06;238654;1200;23132;-70
2021/04/04 23:49:11;;;;;;;24.15;11.05;;;;;;;0.31;66.21;98330.00;238727;1200;23279;-71
2021/04/04 23:54:14;;;;;;;24.60;11.50;;;;;;;0.30;66.58;98321.28;238774;1196;23135;-70
2021/04/04 23:59:17;;;;;;;21.93;9.67;;;;;;;0.33;66.58;98314.75;238812;1199;23105;-70
